sensor_id;sensor_type;location;lat;lon;timestamp;pressure;altitude;pressure_sealevel;temperature;humidity
41898;BME280;27576;53.366;-1.498;2022-12-18T00:01:32;100644.41;;;-0.05;100.00
41898;BME280;27576;53.366;-1.498;2022-12-18T00:03:59;100653.09;;;-0.02;100.00
41898;BME280;27576;53.366;-1.498;2022-12-18T00:06:26;100636.09;;;-0.16;100.00
41898;BME280;27576;53.366;-1.498;2022-12-18T00:08:53;100624.16;;;-0.17;100.00
41898;BME280;27576;53.366;-1.498;2022-12-18T00:11:22;100625.75;;;-0.19;100.00
41898;BME280;27576;53.366;-1.498;2022-12-18T00:13:48;100640.31;;;-0.16;100.00
41898;BME280;27576;53.366;-1.498;2022-12-18T00:16:16;100646.63;;;-0.25;100.00
41898;BME280;27576;53.366;-1.498;2022-12-18T00:18:43;100642.47;;;-0.37;100.00
41898;BME280;27576;53.366;-1.498;2022-12-18T00:21:11;100650.13;;;-0.37;100.00
41898;BME280;27576;53.366;-1.498;2022-12-18T00:23:37;100612.75;;;-0.66;100.00
41898;BME280;27576;53.366;-1.498;2022-12-18T00:26:06;100646.84;;;-0.50;100.00
41898;BME280;27576;53.366;-1.498;2022-12-18T00:28:32;100643.16;;;-0.55;100.00
41898;BME280;27576;53.366;-1.498;2022-12-18T00:31:09;100646.38;;;-0.57;100.00
41898;BME280;27576;53.366;-1.498;2022-12-18T00:33:36;100650.47;;;-0.59;100.00
41898;BME280;27576;53.366;-1.498;2022-12-18T00:36:06;100621.00;;;-0.84;100.00
41898;BME280;27576;53.366;-1.498;2022-12-18T00:38:33;100662.84;;;-0.65;100.00
41898;BME280;27576;53.366;-1.498;2022-12-18T00:40:59;100653.06;;;-0.72;100.00
41898;BME280;27576;53.366;-1.498;2022-12-18T00:43:25;100650.25;;;-0.77;100.00
41898;BME280;27576;53.366;-1.498;2022-12-18T00:45:50;100624.84;;;-0.90;100.00
41898;BME280;27576;53.366;-1.498;2022-12-18T00:48:15;100620.22;;;-0.96;100.00
41898;BME280;27576;53.366;-1.498;2022-12-18T00:50:41;100637.84;;;-0.86;100.00
41898;BME280;27576;53.366;-1.498;2022-12-18T00:53:06;100638.13;;;-0.94;100.00
41898;BME280;27576;53.366;-1.498;2022-12-18T00:55:32;100663.09;;;-0.89;100.00
41898;BME280;27576;53.366;-1.498;2022-12-18T00:57:57;100631.03;;;-1.13;100.00
41898;BME280;27576;53.366;-1.498;2022-12-18T01:00:23;100642.16;;;-1.11;100.00
41898;BME280;27576;53.366;-1.498;2022-12-18T01:02:48;100625.84;;;-1.28;100.00
41898;BME280;27576;53.366;-1.498;2022-12-18T01:05:14;100673.16;;;-1.04;100.00
41898;BME280;27576;53.366;-1.498;2022-12-18T01:07:39;100629.94;;;-1.30;100.00
41898;BME280;27576;53.366;-1.498;2022-12-18T01:10:06;100650.97;;;-1.19;100.00
41898;BME280;27576;53.366;-1.498;2022-12-18T01:12:32;100665.94;;;-1.11;100.00
41898;BME280;27576;53.366;-1.498;2022-12-18T01:14:58;100660.47;;;-1.17;100.00
41898;BME280;27576;53.366;-1.498;2022-12-18T01:17:23;100665.34;;;-1.20;100.00
41898;BME280;27576;53.366;-1.498;2022-12-18T01:19:49;100667.09;;;-1.19;100.00
41898;BME280;27576;53.366;-1.498;2022-12-18T01:22:14;100639.16;;;-1.32;100.00
41898;BME280;27576;53.366;-1.498;2022-12-18T01:24:40;100614.31;;;-1.50;100.00
41898;BME280;27576;53.366;-1.498;2022-12-18T01:27:05;100650.19;;;-1.32;100.00
41898;BME280;27576;53.366;-1.498;2022-12-18T01:29:31;100630.38;;;-1.37;100.00
41898;BME280;27576;53.366;-1.498;2022-12-18T01:31:56;100632.13;;;-1.36;100.00
41898;BME280;27576;53.366;-1.498;2022-12-18T01:34:25;100596.72;;;-1.60;100.00
41898;BME280;27576;53.366;-1.498;2022-12-18T01:36:50;100642.06;;;-1.39;100.00
41898;BME280;27576;53.366;-1.498;2022-12-18T01:39:19;100625.19;;;-1.52;100.00
41898;BME280;27576;53.366;-1.498;2022-12-18T01:41:45;100652.44;;;-1.36;100.00
41898;BME280;27576;53.366;-1.498;2022-12-18T01:47:41;100656.47;;;-1.40;100.00
41898;BME280;27576;53.366;-1.498;2022-12-18T01:50:17;100653.81;;;-1.41;100.00
41898;BME280;27576;53.366;-1.498;2022-12-18T01:52:56;100650.22;;;-1.45;100.00
41898;BME280;27576;53.366;-1.498;2022-12-18T01:55:25;100642.84;;;-1.54;100.00
41898;BME280;27576;53.366;-1.498;2022-12-18T01:57:54;100664.66;;;-1.44;100.00
41898;BME280;27576;53.366;-1.498;2022-12-18T02:00:22;100617.94;;;-1.73;100.00
41898;BME280;27576;53.366;-1.498;2022-12-18T02:02:48;100635.44;;;-1.64;100.00
41898;BME280;27576;53.366;-1.498;2022-12-18T02:05:21;100630.94;;;-1.68;100.00
41898;BME280;27576;53.366;-1.498;2022-12-18T02:11:17;100647.34;;;-1.63;100.00
41898;BME280;27576;53.366;-1.498;2022-12-18T02:13:35;100669.25;;;-1.52;100.00
41898;BME280;27576;53.366;-1.498;2022-12-18T02:16:34;100663.16;;;-1.54;100.00
41898;BME280;27576;53.366;-1.498;2022-12-18T02:19:15;100661.41;;;-1.55;100.00
41898;BME280;27576;53.366;-1.498;2022-12-18T02:22:24;100652.41;;;-1.63;100.00
41898;BME280;27576;53.366;-1.498;2022-12-18T02:27:28;100647.13;;;-1.66;100.00
41898;BME280;27576;53.366;-1.498;2022-12-18T02:29:57;100658.88;;;-1.68;100.00
41898;BME280;27576;53.366;-1.498;2022-12-18T02:32:31;100654.16;;;-1.75;100.00
41898;BME280;27576;53.366;-1.498;2022-12-18T02:35:01;100678.03;;;-1.60;100.00
41898;BME280;27576;53.366;-1.498;2022-12-18T02:37:29;100672.16;;;-1.59;100.00
41898;BME280;27576;53.366;-1.498;2022-12-18T02:39:57;100673.84;;;-1.59;100.00
41898;BME280;27576;53.366;-1.498;2022-12-18T02:42:24;100639.28;;;-1.82;100.00
41898;BME280;27576;53.366;-1.498;2022-12-18T02:44:51;100652.78;;;-1.70;100.00
41898;BME280;27576;53.366;-1.498;2022-12-18T02:47:21;100654.16;;;-1.75;100.00
41898;BME280;27576;53.366;-1.498;2022-12-18T02:55:19;100673.25;;;-1.68;100.00
41898;BME280;27576;53.366;-1.498;2022-12-18T02:57:53;100663.53;;;-1.74;100.00
41898;BME280;27576;53.366;-1.498;2022-12-18T03:00:29;100665.13;;;-1.76;100.00
41898;BME280;27576;53.366;-1.498;2022-12-18T03:05:37;100620.13;;;-2.04;100.00
41898;BME280;27576;53.366;-1.498;2022-12-18T03:08:12;100666.34;;;-1.83;100.00
41898;BME280;27576;53.366;-1.498;2022-12-18T03:10:42;100638.28;;;-1.98;100.00
41898;BME280;27576;53.366;-1.498;2022-12-18T03:13:12;100640.03;;;-1.97;100.00
41898;BME280;27576;53.366;-1.498;2022-12-18T03:15:45;100656.69;;;-1.88;100.00
41898;BME280;27576;53.366;-1.498;2022-12-18T03:18:24;100655.03;;;-1.88;100.00
41898;BME280;27576;53.366;-1.498;2022-12-18T03:20:53;100610.03;;;-2.15;100.00
41898;BME280;27576;53.366;-1.498;2022-12-18T03:23:27;100655.91;;;-1.87;100.00
41898;BME280;27576;53.366;-1.498;2022-12-18T03:25:56;100629.69;;;-2.00;100.00
41898;BME280;27576;53.366;-1.498;2022-12-18T03:28:24;100635.94;;;-1.94;100.00
41898;BME280;27576;53.366;-1.498;2022-12-18T03:30:57;100610.53;;;-2.08;100.00
41898;BME280;27576;53.366;-1.498;2022-12-18T03:33:25;100631.97;;;-1.91;100.00
41898;BME280;27576;53.366;-1.498;2022-12-18T03:35:52;100642.63;;;-1.83;100.00
41898;BME280;27576;53.366;-1.498;2022-12-18T03:38:18;100637.41;;;-1.85;100.00
41898;BME280;27576;53.366;-1.498;2022-12-18T03:43:49;100620.44;;;-1.86;100.00
41898;BME280;27576;53.366;-1.498;2022-12-18T03:54:54;100588.38;;;-1.97;100.00
41898;BME280;27576;53.366;-1.498;2022-12-18T03:57:24;100562.09;;;-2.11;100.00
41898;BME280;27576;53.366;-1.498;2022-12-18T03:59:55;100570.09;;;-2.05;100.00
41898;BME280;27576;53.366;-1.498;2022-12-18T04:02:22;100576.88;;;-1.92;100.00
41898;BME280;27576;53.366;-1.498;2022-12-18T04:04:51;100571.00;;;-1.91;100.00
41898;BME280;27576;53.366;-1.498;2022-12-18T04:07:18;100562.50;;;-1.91;100.00
41898;BME280;27576;53.366;-1.498;2022-12-18T04:09:45;100561.50;;;-1.93;100.00
41898;BME280;27576;53.366;-1.498;2022-12-18T04:12:11;100527.34;;;-2.12;100.00
41898;BME280;27576;53.366;-1.498;2022-12-18T04:14:36;100547.66;;;-1.99;100.00
41898;BME280;27576;53.366;-1.498;2022-12-18T04:17:02;100555.78;;;-1.91;100.00
41898;BME280;27576;53.366;-1.498;2022-12-18T04:19:28;100540.25;;;-1.95;100.00
41898;BME280;27576;53.366;-1.498;2022-12-18T04:21:53;100542.00;;;-1.94;100.00
41898;BME280;27576;53.366;-1.498;2022-12-18T04:24:19;100521.34;;;-2.12;100.00
41898;BME280;27576;53.366;-1.498;2022-12-18T04:26:44;100531.84;;;-2.08;100.00
41898;BME280;27576;53.366;-1.498;2022-12-18T04:29:09;100516.78;;;-2.18;100.00
41898;BME280;27576;53.366;-1.498;2022-12-18T04:31:35;100514.31;;;-2.16;100.00
41898;BME280;27576;53.366;-1.498;2022-12-18T04:34:00;100517.47;;;-2.07;100.00
41898;BME280;27576;53.366;-1.498;2022-12-18T04:36:26;100534.28;;;-1.96;100.00
41898;BME280;27576;53.366;-1.498;2022-12-18T04:38:51;100514.22;;;-2.05;100.00
41898;BME280;27576;53.366;-1.498;2022-12-18T04:41:16;100511.44;;;-1.96;100.00
41898;BME280;27576;53.366;-1.498;2022-12-18T04:43:42;100500.38;;;-2.10;100.00
41898;BME280;27576;53.366;-1.498;2022-12-18T04:46:08;100516.41;;;-1.98;100.00
41898;BME280;27576;53.366;-1.498;2022-12-18T04:48:36;100486.50;;;-2.15;100.00
41898;BME280;27576;53.366;-1.498;2022-12-18T04:51:02;100501.75;;;-2.15;100.00
41898;BME280;27576;53.366;-1.498;2022-12-18T04:53:27;100512.19;;;-1.97;100.00
41898;BME280;27576;53.366;-1.498;2022-12-18T04:56:08;100498.91;;;-1.93;100.00
41898;BME280;27576;53.366;-1.498;2022-12-18T04:58:34;100507.59;;;-1.89;100.00
41898;BME280;27576;53.366;-1.498;2022-12-18T05:01:00;100487.41;;;-1.88;100.00
41898;BME280;27576;53.366;-1.498;2022-12-18T05:03:26;100464.34;;;-1.91;100.00
41898;BME280;27576;53.366;-1.498;2022-12-18T05:05:52;100465.50;;;-1.86;100.00
41898;BME280;27576;53.366;-1.498;2022-12-18T05:08:17;100458.59;;;-1.88;100.00
41898;BME280;27576;53.366;-1.498;2022-12-18T05:10:43;100482.69;;;-1.68;100.00
41898;BME280;27576;53.366;-1.498;2022-12-18T05:13:08;100440.22;;;-1.84;100.00
41898;BME280;27576;53.366;-1.498;2022-12-18T05:15:34;100464.59;;;-1.60;100.00
41898;BME280;27576;53.366;-1.498;2022-12-18T05:18:00;100408.44;;;-1.78;100.00
41898;BME280;27576;53.366;-1.498;2022-12-18T05:20:26;100416.53;;;-1.70;100.00
41898;BME280;27576;53.366;-1.498;2022-12-18T05:22:52;100443.28;;;-1.49;100.00
41898;BME280;27576;53.366;-1.498;2022-12-18T05:25:18;100426.50;;;-1.60;100.00
41898;BME280;27576;53.366;-1.498;2022-12-18T05:27:44;100453.59;;;-1.45;100.00
41898;BME280;27576;53.366;-1.498;2022-12-18T05:30:10;100461.34;;;-1.44;100.00
41898;BME280;27576;53.366;-1.498;2022-12-18T05:32:36;100421.28;;;-1.61;100.00
41898;BME280;27576;53.366;-1.498;2022-12-18T05:35:02;100446.69;;;-1.48;100.00
41898;BME280;27576;53.366;-1.498;2022-12-18T05:37:27;100435.38;;;-1.53;100.00
41898;BME280;27576;53.366;-1.498;2022-12-18T05:39:53;100395.25;;;-1.72;100.00
41898;BME280;27576;53.366;-1.498;2022-12-18T05:42:18;100431.94;;;-1.54;100.00
41898;BME280;27576;53.366;-1.498;2022-12-18T05:44:44;100420.63;;;-1.59;100.00
41898;BME280;27576;53.366;-1.498;2022-12-18T05:47:09;100432.72;;;-1.55;100.00
41898;BME280;27576;53.366;-1.498;2022-12-18T05:49:34;100414.97;;;-1.68;100.00
41898;BME280;27576;53.366;-1.498;2022-12-18T05:52:00;100453.56;;;-1.60;100.00
41898;BME280;27576;53.366;-1.498;2022-12-18T05:54:29;100463.41;;;-1.52;100.00
41898;BME280;27576;53.366;-1.498;2022-12-18T05:56:54;100415.00;;;-1.81;100.00
41898;BME280;27576;53.366;-1.498;2022-12-18T05:59:20;100459.13;;;-1.53;100.00
41898;BME280;27576;53.366;-1.498;2022-12-18T06:01:45;100471.03;;;-1.52;100.00
41898;BME280;27576;53.366;-1.498;2022-12-18T06:04:11;100435.19;;;-1.69;100.00
41898;BME280;27576;53.366;-1.498;2022-12-18T06:06:36;100472.31;;;-1.58;100.00
41898;BME280;27576;53.366;-1.498;2022-12-18T06:09:02;100481.28;;;-1.50;100.00
41898;BME280;27576;53.366;-1.498;2022-12-18T06:11:37;100447.91;;;-1.69;100.00
41898;BME280;27576;53.366;-1.498;2022-12-18T06:14:04;100468.09;;;-1.58;100.00
41898;BME280;27576;53.366;-1.498;2022-12-18T06:16:31;100471.13;;;-1.50;100.00
41898;BME280;27576;53.366;-1.498;2022-12-18T06:18:57;100439.69;;;-1.65;100.00
41898;BME280;27576;53.366;-1.498;2022-12-18T06:21:23;100448.16;;;-1.52;100.00
41898;BME280;27576;53.366;-1.498;2022-12-18T06:23:48;100457.47;;;-1.52;100.00
41898;BME280;27576;53.366;-1.498;2022-12-18T06:26:15;100455.78;;;-1.52;100.00
41898;BME280;27576;53.366;-1.498;2022-12-18T06:28:41;100423.00;;;-1.75;100.00
41898;BME280;27576;53.366;-1.498;2022-12-18T06:31:07;100426.91;;;-1.67;100.00
41898;BME280;27576;53.366;-1.498;2022-12-18T06:33:33;100442.69;;;-1.58;100.00
41898;BME280;27576;53.366;-1.498;2022-12-18T06:36:10;100441.59;;;-1.48;100.00
41898;BME280;27576;53.366;-1.498;2022-12-18T06:38:37;100444.16;;;-1.48;100.00
41898;BME280;27576;53.366;-1.498;2022-12-18T06:41:11;100441.59;;;-1.48;100.00
41898;BME280;27576;53.366;-1.498;2022-12-18T06:43:37;100460.19;;;-1.49;100.00
41898;BME280;27576;53.366;-1.498;2022-12-18T06:46:04;100460.28;;;-1.48;100.00
41898;BME280;27576;53.366;-1.498;2022-12-18T06:48:30;100440.75;;;-1.62;100.00
41898;BME280;27576;53.366;-1.498;2022-12-18T06:50:55;100442.53;;;-1.61;100.00
41898;BME280;27576;53.366;-1.498;2022-12-18T06:53:20;100421.84;;;-1.80;100.00
41898;BME280;27576;53.366;-1.498;2022-12-18T06:55:46;100423.97;;;-1.73;100.00
41898;BME280;27576;53.366;-1.498;2022-12-18T06:58:11;100453.56;;;-1.60;100.00
41898;BME280;27576;53.366;-1.498;2022-12-18T07:00:36;100479.94;;;-1.45;100.00
41898;BME280;27576;53.366;-1.498;2022-12-18T07:03:02;100453.94;;;-1.54;100.00
41898;BME280;27576;53.366;-1.498;2022-12-18T07:05:27;100420.06;;;-1.68;100.00
41898;BME280;27576;53.366;-1.498;2022-12-18T07:07:53;100463.78;;;-1.45;100.00
41898;BME280;27576;53.366;-1.498;2022-12-18T07:10:18;100446.78;;;-1.46;100.00
41898;BME280;27576;53.366;-1.498;2022-12-18T07:12:44;100397.41;;;-1.65;100.00
41898;BME280;27576;53.366;-1.498;2022-12-18T07:15:09;100432.41;;;-1.46;100.00
41898;BME280;27576;53.366;-1.498;2022-12-18T07:17:35;100408.16;;;-1.69;100.00
41898;BME280;27576;53.366;-1.498;2022-12-18T07:20:00;100432.25;;;-1.49;100.00
41898;BME280;27576;53.366;-1.498;2022-12-18T07:22:26;100433.00;;;-1.50;100.00
41898;BME280;27576;53.366;-1.498;2022-12-18T07:24:51;100403.56;;;-1.75;100.00
41898;BME280;27576;53.366;-1.498;2022-12-18T07:27:17;100428.84;;;-1.63;100.00
41898;BME280;27576;53.366;-1.498;2022-12-18T07:29:42;100415.53;;;-1.59;100.00
41898;BME280;27576;53.366;-1.498;2022-12-18T07:32:07;100383.50;;;-1.70;100.00
41898;BME280;27576;53.366;-1.498;2022-12-18T07:34:33;100400.88;;;-1.63;100.00
41898;BME280;27576;53.366;-1.498;2022-12-18T07:36:58;100410.25;;;-1.62;100.00
41898;BME280;27576;53.366;-1.498;2022-12-18T07:39:24;100405.97;;;-1.63;100.00
41898;BME280;27576;53.366;-1.498;2022-12-18T07:41:49;100392.31;;;-1.65;100.00
41898;BME280;27576;53.366;-1.498;2022-12-18T07:44:35;100402.03;;;-1.58;100.00
41898;BME280;27576;53.366;-1.498;2022-12-18T07:47:00;100378.16;;;-1.75;100.00
41898;BME280;27576;53.366;-1.498;2022-12-18T07:49:26;100404.59;;;-1.58;100.00
41898;BME280;27576;53.366;-1.498;2022-12-18T07:51:55;100365.78;;;-1.83;100.00
41898;BME280;27576;53.366;-1.498;2022-12-18T07:54:21;100378.16;;;-1.75;100.00
41898;BME280;27576;53.366;-1.498;2022-12-18T07:56:47;100404.69;;;-1.56;100.00
41898;BME280;27576;53.366;-1.498;2022-12-18T07:59:12;100363.59;;;-1.77;100.00
41898;BME280;27576;53.366;-1.498;2022-12-18T08:01:37;100397.84;;;-1.57;100.00
41898;BME280;27576;53.366;-1.498;2022-12-18T08:04:03;100392.00;;;-1.69;100.00
41898;BME280;27576;53.366;-1.498;2022-12-18T08:06:28;100393.66;;;-1.70;100.00
41898;BME280;27576;53.366;-1.498;2022-12-18T08:08:55;100425.69;;;-1.59;100.00
41898;BME280;27576;53.366;-1.498;2022-12-18T08:11:22;100415.53;;;-1.59;100.00
41898;BME280;27576;53.366;-1.498;2022-12-18T08:13:47;100352.69;;;-1.89;100.00
41898;BME280;27576;53.366;-1.498;2022-12-18T08:16:13;100405.19;;;-1.62;100.00
41898;BME280;27576;53.366;-1.498;2022-12-18T08:18:38;100387.44;;;-1.75;100.00
41898;BME280;27576;53.366;-1.498;2022-12-18T08:21:10;100429.03;;;-1.60;100.00
41898;BME280;27576;53.366;-1.498;2022-12-18T08:23:36;100419.66;;;-1.61;100.00
41898;BME280;27576;53.366;-1.498;2022-12-18T08:26:01;100431.66;;;-1.58;100.00
41898;BME280;27576;53.366;-1.498;2022-12-18T08:28:27;100401.09;;;-1.73;100.00
41898;BME280;27576;53.366;-1.498;2022-12-18T08:30:52;100413.59;;;-1.63;100.00
41898;BME280;27576;53.366;-1.498;2022-12-18T08:33:18;100418.06;;;-1.59;100.00
41898;BME280;27576;53.366;-1.498;2022-12-18T08:35:43;100400.63;;;-1.67;100.00
41898;BME280;27576;53.366;-1.498;2022-12-18T08:38:08;100383.03;;;-1.78;100.00
41898;BME280;27576;53.366;-1.498;2022-12-18T08:40:34;100372.72;;;-1.81;100.00
41898;BME280;27576;53.366;-1.498;2022-12-18T08:42:59;100410.47;;;-1.59;100.00
41898;BME280;27576;53.366;-1.498;2022-12-18T08:45:43;100388.00;;;-1.66;100.00
41898;BME280;27576;53.366;-1.498;2022-12-18T08:48:09;100395.22;;;-1.59;100.00
41898;BME280;27576;53.366;-1.498;2022-12-18T08:50:34;100356.69;;;-1.80;100.00
41898;BME280;27576;53.366;-1.498;2022-12-18T08:53:00;100383.31;;;-1.60;100.00
41898;BME280;27576;53.366;-1.498;2022-12-18T08:55:26;100359.88;;;-1.69;100.00
41898;BME280;27576;53.366;-1.498;2022-12-18T08:57:51;100332.44;;;-1.75;100.00
41898;BME280;27576;53.366;-1.498;2022-12-18T09:00:17;100368.53;;;-1.52;100.00
41898;BME280;27576;53.366;-1.498;2022-12-18T09:02:42;100359.91;;;-1.54;100.00
41898;BME280;27576;53.366;-1.498;2022-12-18T09:05:07;100369.41;;;-1.52;100.00
41898;BME280;27576;53.366;-1.498;2022-12-18T09:07:33;100371.13;;;-1.51;100.00
41898;BME280;27576;53.366;-1.498;2022-12-18T09:09:59;100329.09;;;-1.74;100.00
41898;BME280;27576;53.366;-1.498;2022-12-18T09:12:25;100352.28;;;-1.54;100.00
41898;BME280;27576;53.366;-1.498;2022-12-18T09:14:50;100346.34;;;-1.55;100.00
41898;BME280;27576;53.366;-1.498;2022-12-18T09:17:16;100346.13;;;-1.58;100.00
41898;BME280;27576;53.366;-1.498;2022-12-18T09:19:41;100318.19;;;-1.73;100.00
41898;BME280;27576;53.366;-1.498;2022-12-18T09:22:06;100346.94;;;-1.59;100.00
41898;BME280;27576;53.366;-1.498;2022-12-18T09:24:32;100332.56;;;-1.58;100.00
41898;BME280;27576;53.366;-1.498;2022-12-18T09:26:57;100327.41;;;-1.60;100.00
41898;BME280;27576;53.366;-1.498;2022-12-18T09:29:23;100291.09;;;-1.72;100.00
41898;BME280;27576;53.366;-1.498;2022-12-18T09:31:49;100313.09;;;-1.58;100.00
41898;BME280;27576;53.366;-1.498;2022-12-18T09:34:15;100290.84;;;-1.62;100.00
41898;BME280;27576;53.366;-1.498;2022-12-18T09:36:40;100274.47;;;-1.67;100.00
41898;BME280;27576;53.366;-1.498;2022-12-18T09:39:06;100293.16;;;-1.52;100.00
41898;BME280;27576;53.366;-1.498;2022-12-18T09:41:51;100302.72;;;-1.48;100.00
41898;BME280;27576;53.366;-1.498;2022-12-18T09:44:27;100291.88;;;-1.45;100.00
41898;BME280;27576;53.366;-1.498;2022-12-18T09:47:17;100263.28;;;-1.56;100.00
41898;BME280;27576;53.366;-1.498;2022-12-18T09:49:49;100247.59;;;-1.63;100.00
41898;BME280;27576;53.366;-1.498;2022-12-18T09:52:21;100266.25;;;-1.48;100.00
41898;BME280;27576;53.366;-1.498;2022-12-18T09:57:39;100246.09;;;-1.60;100.00
41898;BME280;27576;53.366;-1.498;2022-12-18T10:02:40;100254.81;;;-1.41;100.00
41898;BME280;27576;53.366;-1.498;2022-12-18T10:17:26;100259.16;;;-1.39;100.00
41898;BME280;27576;53.366;-1.498;2022-12-18T10:19:54;100239.38;;;-1.44;100.00
41898;BME280;27576;53.366;-1.498;2022-12-18T10:25:25;100236.56;;;-1.34;100.00
41898;BME280;27576;53.366;-1.498;2022-12-18T10:27:58;100234.13;;;-1.33;100.00
41898;BME280;27576;53.366;-1.498;2022-12-18T10:30:25;100209.63;;;-1.45;100.00
41898;BME280;27576;53.366;-1.498;2022-12-18T10:32:51;100213.97;;;-1.30;100.00
41898;BME280;27576;53.366;-1.498;2022-12-18T10:35:22;100196.69;;;-1.35;100.00
41898;BME280;27576;53.366;-1.498;2022-12-18T10:43:38;100178.03;;;-1.36;100.00
41898;BME280;27576;53.366;-1.498;2022-12-18T10:51:29;100147.69;;;-1.33;100.00
41898;BME280;27576;53.366;-1.498;2022-12-18T10:53:59;100172.63;;;-1.11;100.00
41898;BME280;27576;53.366;-1.498;2022-12-18T10:56:27;100163.50;;;-1.07;100.00
41898;BME280;27576;53.366;-1.498;2022-12-18T10:59:01;100128.72;;;-1.23;100.00
41898;BME280;27576;53.366;-1.498;2022-12-18T11:01:28;100157.91;;;-1.02;100.00
41898;BME280;27576;53.366;-1.498;2022-12-18T11:04:02;100149.22;;;-1.05;100.00
41898;BME280;27576;53.366;-1.498;2022-12-18T11:06:32;100142.38;;;-1.06;100.00
41898;BME280;27576;53.366;-1.498;2022-12-18T11:08:59;100145.50;;;-0.95;100.00
41898;BME280;27576;53.366;-1.498;2022-12-18T11:11:25;100142.16;;;-0.94;100.00
41898;BME280;27576;53.366;-1.498;2022-12-18T11:16:53;100127.25;;;-0.88;100.00
41898;BME280;27576;53.366;-1.498;2022-12-18T11:19:38;100127.47;;;-0.84;100.00
41898;BME280;27576;53.366;-1.498;2022-12-18T11:22:40;100131.75;;;-0.83;100.00
41898;BME280;27576;53.366;-1.498;2022-12-18T11:25:18;100101.00;;;-0.87;100.00
41898;BME280;27576;53.366;-1.498;2022-12-18T11:28:04;100109.22;;;-0.77;100.00
41898;BME280;27576;53.366;-1.498;2022-12-18T11:30:33;100088.44;;;-0.84;100.00
41898;BME280;27576;53.366;-1.498;2022-12-18T11:33:12;100095.06;;;-0.71;100.00
41898;BME280;27576;53.366;-1.498;2022-12-18T11:38:18;100085.09;;;-0.67;100.00
41898;BME280;27576;53.366;-1.498;2022-12-18T11:40:58;100074.00;;;-0.69;100.00
41898;BME280;27576;53.366;-1.498;2022-12-18T11:43:31;100081.63;;;-0.69;100.00
41898;BME280;27576;53.366;-1.498;2022-12-18T11:46:26;100050.63;;;-0.78;100.00
41898;BME280;27576;53.366;-1.498;2022-12-18T11:48:58;100038.84;;;-0.76;100.00
41898;BME280;27576;53.366;-1.498;2022-12-18T11:54:38;100034.22;;;-0.67;100.00
41898;BME280;27576;53.366;-1.498;2022-12-18T12:10:29;99996.53;;;-0.58;100.00
41898;BME280;27576;53.366;-1.498;2022-12-18T12:26:26;99913.25;;;-0.78;100.00
41898;BME280;27576;53.366;-1.498;2022-12-18T12:37:28;99925.56;;;-0.52;100.00
41898;BME280;27576;53.366;-1.498;2022-12-18T12:39:59;99899.75;;;-0.59;100.00
41898;BME280;27576;53.366;-1.498;2022-12-18T12:42:32;99918.09;;;-0.48;100.00
41898;BME280;27576;53.366;-1.498;2022-12-18T12:45:26;99889.28;;;-0.65;100.00
41898;BME280;27576;53.366;-1.498;2022-12-18T12:47:53;99920.75;;;-0.47;100.00
41898;BME280;27576;53.366;-1.498;2022-12-18T12:50:20;99871.91;;;-0.74;100.00
41898;BME280;27576;53.366;-1.498;2022-12-18T12:52:51;99870.41;;;-0.70;100.00
41898;BME280;27576;53.366;-1.498;2022-12-18T12:55:21;99904.72;;;-0.44;100.00
41898;BME280;27576;53.366;-1.498;2022-12-18T12:58:06;99902.19;;;-0.44;100.00
41898;BME280;27576;53.366;-1.498;2022-12-18T13:00:49;99894.47;;;-0.46;100.00
41898;BME280;27576;53.366;-1.498;2022-12-18T13:09:22;99862.59;;;-0.56;100.00
41898;BME280;27576;53.366;-1.498;2022-12-18T13:11:47;99855.13;;;-0.53;100.00
41898;BME280;27576;53.366;-1.498;2022-12-18T13:14:39;99865.81;;;-0.42;100.00
41898;BME280;27576;53.366;-1.498;2022-12-18T13:20:11;99855.72;;;-0.40;100.00
41898;BME280;27576;53.366;-1.498;2022-12-18T13:22:45;99838.84;;;-0.38;100.00
41898;BME280;27576;53.366;-1.498;2022-12-18T13:25:35;99830.41;;;-0.37;100.00
41898;BME280;27576;53.366;-1.498;2022-12-18T13:28:09;99824.50;;;-0.36;100.00
41898;BME280;27576;53.366;-1.498;2022-12-18T13:30:54;99768.75;;;-0.67;100.00
41898;BME280;27576;53.366;-1.498;2022-12-18T13:38:47;99772.22;;;-0.47;100.00
41898;BME280;27576;53.366;-1.498;2022-12-18T13:41:33;99749.88;;;-0.55;100.00
41898;BME280;27576;53.366;-1.498;2022-12-18T13:46:57;99774.69;;;-0.31;100.00
41898;BME280;27576;53.366;-1.498;2022-12-18T13:49:38;99753.09;;;-0.39;100.00
41898;BME280;27576;53.366;-1.498;2022-12-18T13:52:20;99761.06;;;-0.32;100.00
41898;BME280;27576;53.366;-1.498;2022-12-18T13:54:54;99757.81;;;-0.29;100.00
41898;BME280;27576;53.366;-1.498;2022-12-18T13:57:37;99758.75;;;-0.27;100.00
41898;BME280;27576;53.366;-1.498;2022-12-18T14:02:45;99721.47;;;-0.44;100.00
41898;BME280;27576;53.366;-1.498;2022-12-18T14:05:30;99752.72;;;-0.29;100.00
41898;BME280;27576;53.366;-1.498;2022-12-18T14:08:00;99733.16;;;-0.30;100.00
41898;BME280;27576;53.366;-1.498;2022-12-18T14:10:27;99689.72;;;-0.53;100.00
41898;BME280;27576;53.366;-1.498;2022-12-18T14:12:53;99721.91;;;-0.35;100.00
41898;BME280;27576;53.366;-1.498;2022-12-18T14:17:51;99668.09;;;-0.62;100.00
41898;BME280;27576;53.366;-1.498;2022-12-18T14:20:18;99703.28;;;-0.34;100.00
41898;BME280;27576;53.366;-1.498;2022-12-18T14:22:46;99694.53;;;-0.39;100.00
41898;BME280;27576;53.366;-1.498;2022-12-18T14:27:41;99689.59;;;-0.36;100.00
41898;BME280;27576;53.366;-1.498;2022-12-18T14:30:38;99692.94;;;-0.37;100.00
41898;BME280;27576;53.366;-1.498;2022-12-18T14:33:06;99668.56;;;-0.52;100.00
41898;BME280;27576;53.366;-1.498;2022-12-18T14:35:36;99696.31;;;-0.38;100.00
41898;BME280;27576;53.366;-1.498;2022-12-18T14:40:56;99671.84;;;-0.54;100.00
41898;BME280;27576;53.366;-1.498;2022-12-18T14:43:22;99677.09;;;-0.51;100.00
41898;BME280;27576;53.366;-1.498;2022-12-18T14:45:48;99661.72;;;-0.53;100.00
41898;BME280;27576;53.366;-1.498;2022-12-18T14:48:38;99666.09;;;-0.50;100.00
41898;BME280;27576;53.366;-1.498;2022-12-18T14:51:06;99686.13;;;-0.38;100.00
41898;BME280;27576;53.366;-1.498;2022-12-18T14:53:37;99685.25;;;-0.39;100.00